Time;durP1;ratioP1;P1;durP2;ratioP2;P2;SDS_P1;SDS_P2;PMS_P1;PMS_P2;Temp;Humidity;BMP_temperature;BMP_pressure;BME280_temperature;BME280_humidity;BME280_pressure;Samples;Min_cycle;Max_cycle;Signal;HPM_P1;HPM_P2
2024/03/04 00:00:03;;;;;;;;;15.50;15.00;;;;;;;;4922373;28;45410;-66
2024/03/04 00:02:28;;;;;;;;;12.50;12.50;;;;;;;;4913454;28;45465;-66
2024/03/04 00:04:53;;;;;;;;;17.00;15.75;;;;;;;;4927507;28;45261;-66
2024/03/04 00:07:19;;;;;;;;;15.33;15.00;;;;;;;;4931987;28;45387;-66
2024/03/04 00:09:44;;;;;;;;;21.25;16.50;;;;;;;;4909952;28;45437;-66
2024/03/04 00:12:09;;;;;;;;;19.00;19.00;;;;;;;;4931293;28;45328;-66
2024/03/04 00:14:35;;;;;;;;;18.67;14.67;;;;;;;;4908648;28;45530;-66
2024/03/04 00:17:00;;;;;;;;;15.00;15.00;;;;;;;;4907994;28;47546;-66
2024/03/04 00:19:26;;;;;;;;;18.25;18.25;;;;;;;;4927361;28;45352;-66
2024/03/04 00:21:51;;;;;;;;;21.67;16.67;;;;;;;;4914785;28;45359;-66
2024/03/04 00:24:16;;;;;;;;;20.67;19.00;;;;;;;;4927249;28;45239;-66
2024/03/04 00:26:41;;;;;;;;;14.25;13.00;;;;;;;;4914495;28;48341;-66
2024/03/04 00:29:07;;;;;;;;;19.25;16.25;;;;;;;;4918004;28;45598;-66
2024/03/04 00:31:32;;;;;;;;;12.75;11.50;;;;;;;;4915956;28;45392;-66
2024/03/04 00:33:58;;;;;;;;;8.25;8.25;;;;;;;;4925856;28;45366;-66
2024/03/04 00:36:24;;;;;;;;;14.50;10.50;;;;;;;;4913915;28;46338;-66
2024/03/04 00:38:51;;;;;;;;;13.00;11.25;;;;;;;;4927438;28;45393;-66
2024/03/04 00:41:25;;;;;;;;;9.50;9.50;;;;;;;;4931468;28;45483;-66
2024/03/04 00:43:51;;;;;;;;;12.50;12.50;;;;;;;;4924401;28;45597;-66
2024/03/04 00:46:16;;;;;;;;;14.00;11.75;;;;;;;;4931947;28;46434;-66
2024/03/04 00:48:44;;;;;;;;;14.00;12.00;;;;;;;;4927075;28;45468;-66
2024/03/04 00:51:10;;;;;;;;;9.00;9.00;;;;;;;;4917037;28;45417;-66
2024/03/04 00:53:35;;;;;;;;;12.00;11.25;;;;;;;;4926133;28;45276;-66
2024/03/04 00:56:00;;;;;;;;;13.67;13.33;;;;;;;;4931530;28;45327;-66
2024/03/04 00:58:26;;;;;;;;;11.00;10.67;;;;;;;;4907611;28;45333;-66
2024/03/04 01:00:51;;;;;;;;;14.25;12.75;;;;;;;;4915071;28;45387;-66
2024/03/04 01:03:16;;;;;;;;;12.33;12.33;;;;;;;;4929740;28;45360;-66
2024/03/04 01:05:41;;;;;;;;;10.00;10.00;;;;;;;;4931904;28;45607;-66
2024/03/04 01:08:07;;;;;;;;;9.33;8.33;;;;;;;;4926667;28;45503;-66
2024/03/04 01:10:32;;;;;;;;;10.00;9.00;;;;;;;;4932264;28;45304;-66
2024/03/04 01:12:58;;;;;;;;;13.00;11.00;;;;;;;;4909190;28;45610;-66
2024/03/04 01:15:23;;;;;;;;;11.67;11.67;;;;;;;;4909031;28;48042;-67
2024/03/04 01:17:50;;;;;;;;;14.00;10.50;;;;;;;;4924759;28;45651;-66
2024/03/04 01:20:20;;;;;;;;;11.75;11.25;;;;;;;;4926981;28;45391;-66
2024/03/04 01:22:45;;;;;;;;;10.50;10.50;;;;;;;;4916266;28;45461;-66
2024/03/04 01:25:10;;;;;;;;;13.25;11.75;;;;;;;;4913325;28;47591;-66
2024/03/04 01:27:36;;;;;;;;;16.50;12.75;;;;;;;;4905977;28;45513;-66
2024/03/04 01:30:01;;;;;;;;;16.00;15.00;;;;;;;;4925654;28;45316;-66
2024/03/04 01:32:26;;;;;;;;;17.33;16.33;;;;;;;;4904263;28;45854;-66
2024/03/04 01:34:51;;;;;;;;;15.00;15.00;;;;;;;;4931324;28;45433;-66
2024/03/04 01:37:16;;;;;;;;;16.00;15.00;;;;;;;;4918729;28;45613;-66
2024/03/04 01:39:42;;;;;;;;;20.33;19.00;;;;;;;;4931361;28;45592;-66
2024/03/04 01:42:07;;;;;;;;;21.25;20.00;;;;;;;;4910450;28;45285;-66
2024/03/04 01:44:35;;;;;;;;;17.75;17.75;;;;;;;;4908747;28;47206;-66
2024/03/04 01:47:02;;;;;;;;;24.00;19.00;;;;;;;;4926297;28;45691;-66
2024/03/04 01:49:28;;;;;;;;;19.50;16.00;;;;;;;;4931036;28;45442;-66
2024/03/04 01:51:53;;;;;;;;;24.25;21.00;;;;;;;;4916611;28;45383;-66
2024/03/04 01:54:18;;;;;;;;;25.25;22.50;;;;;;;;4913296;28;48255;-66
2024/03/04 01:56:43;;;;;;;;;22.50;20.75;;;;;;;;4925575;28;45300;-66
2024/03/04 01:59:09;;;;;;;;;16.25;16.25;;;;;;;;4930294;28;45525;-66
2024/03/04 02:01:36;;;;;;;;;24.00;20.75;;;;;;;;4928620;28;45317;-66
2024/03/04 02:04:01;;;;;;;;;17.00;15.25;;;;;;;;4912789;28;47080;-66
2024/03/04 02:06:28;;;;;;;;;20.00;18.75;;;;;;;;4908104;28;45415;-66
2024/03/04 02:08:53;;;;;;;;;17.75;16.75;;;;;;;;4912946;28;45371;-66
2024/03/04 02:11:19;;;;;;;;;25.00;21.00;;;;;;;;4907453;28;45326;-66
2024/03/04 02:13:44;;;;;;;;;24.25;21.00;;;;;;;;4929564;28;45659;-66
2024/03/04 02:16:09;;;;;;;;;18.50;16.50;;;;;;;;4920611;28;45291;-66
2024/03/04 02:18:34;;;;;;;;;21.00;18.50;;;;;;;;4911556;28;45493;-66
2024/03/04 02:21:02;;;;;;;;;19.00;19.00;;;;;;;;4908446;28;45506;-66
2024/03/04 02:23:27;;;;;;;;;19.25;19.25;;;;;;;;4929691;28;46241;-66
2024/03/04 02:25:53;;;;;;;;;15.50;14.25;;;;;;;;4907603;28;45428;-66
2024/03/04 02:28:19;;;;;;;;;16.00;16.00;;;;;;;;4911930;28;45296;-66
2024/03/04 02:30:45;;;;;;;;;16.50;15.00;;;;;;;;4917994;28;45793;-66
2024/03/04 02:33:10;;;;;;;;;16.00;15.75;;;;;;;;4909263;28;46873;-66
2024/03/04 02:35:35;;;;;;;;;17.75;15.00;;;;;;;;4927275;28;45252;-66
2024/03/04 02:38:04;;;;;;;;;16.50;16.50;;;;;;;;4927586;28;45348;-66
2024/03/04 02:40:29;;;;;;;;;19.75;18.25;;;;;;;;4915762;28;45510;-66
2024/03/04 02:42:54;;;;;;;;;18.50;17.75;;;;;;;;4915611;28;47170;-66
2024/03/04 02:45:20;;;;;;;;;16.33;16.33;;;;;;;;4911018;28;45514;-66
2024/03/04 02:47:45;;;;;;;;;20.00;18.00;;;;;;;;4933154;28;45499;-66
2024/03/04 02:50:10;;;;;;;;;16.33;13.00;;;;;;;;4894868;29;45368;-66
2024/03/04 02:52:36;;;;;;;;;19.00;16.25;;;;;;;;4909132;28;46235;-66
2024/03/04 02:55:01;;;;;;;;;17.50;17.50;;;;;;;;4928113;28;45347;-66
2024/03/04 02:57:26;;;;;;;;;18.25;14.00;;;;;;;;4914935;28;45455;-66
2024/03/04 02:59:51;;;;;;;;;25.25;18.00;;;;;;;;4928324;28;45417;-66
2024/03/04 03:02:17;;;;;;;;;15.67;14.67;;;;;;;;4934231;28;45467;-66
2024/03/04 03:04:42;;;;;;;;;21.75;20.00;;;;;;;;4910785;28;45426;-66
2024/03/04 03:07:08;;;;;;;;;19.00;18.75;;;;;;;;4929936;28;45653;-66
2024/03/04 03:09:33;;;;;;;;;26.25;24.50;;;;;;;;4927771;28;45570;-66
2024/03/04 03:11:59;;;;;;;;;21.33;21.33;;;;;;;;4931686;28;45482;-66
2024/03/04 03:14:25;;;;;;;;;28.50;24.25;;;;;;;;4910294;28;45867;-66
2024/03/04 03:16:51;;;;;;;;;29.50;24.75;;;;;;;;4908910;28;45540;-66
2024/03/04 03:19:20;;;;;;;;;25.67;24.67;;;;;;;;4910340;28;45439;-66
2024/03/04 03:21:45;;;;;;;;;23.00;20.25;;;;;;;;4931643;28;45462;-66
2024/03/04 03:24:10;;;;;;;;;23.00;21.75;;;;;;;;4910368;28;45497;-66
2024/03/04 03:26:36;;;;;;;;;28.67;25.33;;;;;;;;4914630;28;45566;-66
2024/03/04 03:29:01;;;;;;;;;24.67;22.67;;;;;;;;4918805;28;45493;-66
2024/03/04 03:31:26;;;;;;;;;28.75;25.25;;;;;;;;4920410;28;45670;-66
2024/03/04 03:33:51;;;;;;;;;26.50;23.25;;;;;;;;4926716;28;45452;-66
2024/03/04 03:36:17;;;;;;;;;28.33;24.33;;;;;;;;4931599;28;45620;-66
2024/03/04 03:38:42;;;;;;;;;24.33;23.67;;;;;;;;4929188;28;45473;-66
2024/03/04 03:41:07;;;;;;;;;29.00;22.00;;;;;;;;4914023;28;47894;-66
2024/03/04 03:43:32;;;;;;;;;20.00;20.00;;;;;;;;4925500;28;45492;-65
2024/03/04 03:45:57;;;;;;;;;24.67;24.00;;;;;;;;4931666;28;45410;-66
2024/03/04 03:48:25;;;;;;;;;19.00;13.00;;;;;;;;4911669;28;45606;-66
2024/03/04 03:50:50;;;;;;;;;26.75;19.75;;;;;;;;4930330;28;47969;-66
2024/03/04 03:53:16;;;;;;;;;20.67;20.33;;;;;;;;4927853;28;45284;-66
2024/03/04 03:55:41;;;;;;;;;24.67;20.33;;;;;;;;4931598;28;45384;-66
2024/03/04 03:58:07;;;;;;;;;24.50;19.75;;;;;;;;4906239;28;45344;-66
2024/03/04 04:00:32;;;;;;;;;25.75;19.25;;;;;;;;4913715;28;48361;-66
2024/03/04 04:02:57;;;;;;;;;23.00;19.33;;;;;;;;4923608;28;45340;-66
2024/03/04 04:05:22;;;;;;;;;24.00;22.00;;;;;;;;4914399;28;45400;-66
2024/03/04 04:07:47;;;;;;;;;22.00;19.33;;;;;;;;4927904;28;45431;-66
2024/03/04 04:10:14;;;;;;;;;25.33;23.00;;;;;;;;4914209;28;48160;-65
2024/03/04 04:12:39;;;;;;;;;22.00;20.00;;;;;;;;4909921;28;45495;-66
2024/03/04 04:15:05;;;;;;;;;18.75;13.50;;;;;;;;4910117;28;45562;-66
2024/03/04 04:17:30;;;;;;;;;23.00;23.00;;;;;;;;4926166;28;45413;-65
2024/03/04 04:19:55;;;;;;;;;19.00;19.00;;;;;;;;4931040;28;46258;-66
2024/03/04 04:22:20;;;;;;;;;22.33;20.00;;;;;;;;4928328;28;45381;-66
2024/03/04 04:24:46;;;;;;;;;26.33;22.00;;;;;;;;4931839;28;45707;-66
2024/03/04 04:27:11;;;;;;;;;22.00;19.25;;;;;;;;4926179;28;45355;-65
2024/03/04 04:29:36;;;;;;;;;26.75;22.00;;;;;;;;4919908;28;45413;-65
2024/03/04 04:32:01;;;;;;;;;21.33;20.33;;;;;;;;4917727;28;45390;-66
2024/03/04 04:34:27;;;;;;;;;24.00;22.50;;;;;;;;4928712;28;45566;-65
2024/03/04 04:36:52;;;;;;;;;21.25;21.25;;;;;;;;4929921;28;45478;-66
2024/03/04 04:39:18;;;;;;;;;25.25;21.50;;;;;;;;4928296;28;46418;-66
2024/03/04 04:41:43;;;;;;;;;24.25;22.75;;;;;;;;4930770;28;45373;-66
2024/03/04 04:44:09;;;;;;;;;19.25;18.25;;;;;;;;4924231;28;45509;-66
2024/03/04 04:46:35;;;;;;;;;18.25;17.75;;;;;;;;4929500;28;45456;-66
2024/03/04 04:49:01;;;;;;;;;19.00;18.50;;;;;;;;4911999;28;47397;-66
2024/03/04 04:51:26;;;;;;;;;21.75;18.50;;;;;;;;4901620;28;45343;-66
2024/03/04 04:53:51;;;;;;;;;22.33;22.33;;;;;;;;4912241;28;45526;-66
2024/03/04 04:56:17;;;;;;;;;19.33;18.33;;;;;;;;4911726;28;45332;-66
2024/03/04 04:58:42;;;;;;;;;20.75;19.00;;;;;;;;4928208;28;45584;-66
2024/03/04 05:01:08;;;;;;;;;24.25;18.25;;;;;;;;4930270;28;45407;-66
2024/03/04 05:03:33;;;;;;;;;16.25;14.25;;;;;;;;4930423;28;45646;-66
2024/03/04 05:06:00;;;;;;;;;17.33;17.00;;;;;;;;4911749;28;45253;-66
2024/03/04 05:08:25;;;;;;;;;16.50;14.25;;;;;;;;4911232;28;46471;-66
2024/03/04 05:10:50;;;;;;;;;23.00;18.67;;;;;;;;4928570;28;45391;-65
2024/03/04 05:13:15;;;;;;;;;19.00;17.67;;;;;;;;4928638;28;45480;-65
2024/03/04 05:15:41;;;;;;;;;22.00;21.00;;;;;;;;4923563;28;45386;-66
2024/03/04 05:18:06;;;;;;;;;18.75;15.25;;;;;;;;4926365;28;45802;-65
2024/03/04 05:20:31;;;;;;;;;17.67;17.67;;;;;;;;4928409;28;45378;-66
2024/03/04 05:22:56;;;;;;;;;23.00;18.00;;;;;;;;4928724;28;45558;-66
2024/03/04 05:25:23;;;;;;;;;22.25;18.75;;;;;;;;4911436;28;45851;-66
2024/03/04 05:27:48;;;;;;;;;16.25;16.25;;;;;;;;4922457;28;45694;-66
2024/03/04 05:30:14;;;;;;;;;18.00;16.67;;;;;;;;4919551;28;45372;-66
2024/03/04 05:32:39;;;;;;;;;21.00;16.75;;;;;;;;4917765;28;45316;-66
2024/03/04 05:35:07;;;;;;;;;22.00;17.75;;;;;;;;4913086;28;45375;-65
2024/03/04 05:37:33;;;;;;;;;18.00;17.75;;;;;;;;4926350;28;46628;-65
2024/03/04 05:39:58;;;;;;;;;15.25;13.50;;;;;;;;4932592;28;45504;-66
2024/03/04 05:42:23;;;;;;;;;19.67;18.67;;;;;;;;4927075;28;45485;-65
2024/03/04 05:44:49;;;;;;;;;20.67;18.67;;;;;;;;4924398;28;45612;-66
2024/03/04 05:47:14;;;;;;;;;9.75;7.75;;;;;;;;4926258;28;45424;-66
2024/03/04 05:49:39;;;;;;;;;19.25;17.00;;;;;;;;4930246;28;45358;-65
2024/03/04 05:52:05;;;;;;;;;18.33;16.67;;;;;;;;4916733;28;45422;-65
2024/03/04 05:54:32;;;;;;;;;19.75;18.25;;;;;;;;4930116;28;45332;-66
2024/03/04 05:56:57;;;;;;;;;16.25;14.25;;;;;;;;4925088;28;46355;-66
2024/03/04 05:59:22;;;;;;;;;25.33;22.67;;;;;;;;4935290;28;45427;-65
2024/03/04 06:01:47;;;;;;;;;25.25;20.25;;;;;;;;4929459;28;45359;-66
2024/03/04 06:04:13;;;;;;;;;20.67;16.67;;;;;;;;4908707;28;45564;-65
2024/03/04 06:06:38;;;;;;;;;20.00;17.00;;;;;;;;4926592;28;45529;-66
2024/03/04 06:09:04;;;;;;;;;16.67;13.33;;;;;;;;4907895;28;45794;-66
2024/03/04 06:11:29;;;;;;;;;23.50;16.75;;;;;;;;4926911;28;45702;-66
2024/03/04 06:13:54;;;;;;;;;20.00;17.25;;;;;;;;4912268;28;45395;-66
2024/03/04 06:16:20;;;;;;;;;17.00;14.33;;;;;;;;4907688;28;48350;-66
2024/03/04 06:18:45;;;;;;;;;23.00;20.50;;;;;;;;4912126;28;45798;-66
2024/03/04 06:21:11;;;;;;;;;19.25;17.50;;;;;;;;4930996;28;45401;-66
2024/03/04 06:23:36;;;;;;;;;19.33;16.67;;;;;;;;4933572;28;45714;-66
2024/03/04 06:26:01;;;;;;;;;16.67;16.67;;;;;;;;4930385;28;45482;-65
2024/03/04 06:28:27;;;;;;;;;15.00;15.00;;;;;;;;4922955;28;45353;-66
2024/03/04 06:30:52;;;;;;;;;19.33;16.67;;;;;;;;4918649;28;45525;-66
2024/03/04 06:33:17;;;;;;;;;16.00;15.33;;;;;;;;4928621;28;45571;-66
2024/03/04 06:35:42;;;;;;;;;15.00;12.00;;;;;;;;4911026;28;47349;-66
2024/03/04 06:38:07;;;;;;;;;13.67;12.33;;;;;;;;4915363;28;45248;-66
2024/03/04 06:40:33;;;;;;;;;13.67;13.67;;;;;;;;4914750;28;45319;-66
2024/03/04 06:42:58;;;;;;;;;20.67;18.00;;;;;;;;4925998;28;45554;-66
2024/03/04 06:45:23;;;;;;;;;15.33;14.33;;;;;;;;4927566;28;45553;-66
2024/03/04 06:47:49;;;;;;;;;20.00;17.25;;;;;;;;4913736;28;45585;-65
2024/03/04 06:50:14;;;;;;;;;19.00;15.75;;;;;;;;4923872;28;45425;-66
2024/03/04 06:52:39;;;;;;;;;15.50;14.25;;;;;;;;4908390;28;45361;-65
2024/03/04 06:55:05;;;;;;;;;15.00;13.00;;;;;;;;4927359;28;45465;-66
2024/03/04 06:57:30;;;;;;;;;15.75;12.75;;;;;;;;4926206;28;45404;-65
2024/03/04 06:59:55;;;;;;;;;15.67;15.67;;;;;;;;4927593;28;45503;-66
2024/03/04 07:02:20;;;;;;;;;19.67;17.00;;;;;;;;4913447;28;45632;-66
2024/03/04 07:04:47;;;;;;;;;17.00;12.67;;;;;;;;4909177;28;47090;-66
2024/03/04 07:07:12;;;;;;;;;16.00;14.75;;;;;;;;4930807;28;45732;-66
2024/03/04 07:09:37;;;;;;;;;16.00;16.00;;;;;;;;4926786;28;45421;-66
2024/03/04 07:12:02;;;;;;;;;20.67;16.67;;;;;;;;4930647;28;45415;-64
2024/03/04 07:14:27;;;;;;;;;30.25;24.25;;;;;;;;4924825;28;46752;-64
2024/03/04 07:16:53;;;;;;;;;19.33;17.00;;;;;;;;4902719;28;45495;-64
2024/03/04 07:19:18;;;;;;;;;20.33;18.33;;;;;;;;4905831;28;45775;-65
2024/03/04 07:21:43;;;;;;;;;23.67;21.33;;;;;;;;4905275;28;45377;-66
2024/03/04 07:24:08;;;;;;;;;23.33;22.67;;;;;;;;4919294;28;45437;-65
2024/03/04 07:26:34;;;;;;;;;24.33;24.33;;;;;;;;4903856;28;45912;-66
2024/03/04 07:29:00;;;;;;;;;27.00;26.25;;;;;;;;4910867;28;45522;-65
2024/03/04 07:31:26;;;;;;;;;26.50;24.50;;;;;;;;4907807;28;45656;-66
2024/03/04 07:33:51;;;;;;;;;29.67;26.33;;;;;;;;4905710;28;48075;-64
2024/03/04 07:36:16;;;;;;;;;22.00;20.33;;;;;;;;4928285;28;45395;-66
2024/03/04 07:38:41;;;;;;;;;20.00;20.00;;;;;;;;4924405;28;45299;-65
2024/03/04 07:41:06;;;;;;;;;32.25;25.75;;;;;;;;4924159;28;45453;-66
2024/03/04 07:43:32;;;;;;;;;25.67;21.67;;;;;;;;4929973;28;45369;-65
2024/03/04 07:45:57;;;;;;;;;21.50;20.50;;;;;;;;4931154;28;45319;-65
2024/03/04 07:48:22;;;;;;;;;23.00;22.33;;;;;;;;4930869;28;45344;-66
2024/03/04 07:50:48;;;;;;;;;16.00;16.00;;;;;;;;4913772;28;45821;-65
2024/03/04 07:53:13;;;;;;;;;20.50;18.00;;;;;;;;4928486;28;45458;-66
2024/03/04 07:55:38;;;;;;;;;21.33;19.33;;;;;;;;4929841;28;45408;-65
2024/03/04 07:58:03;;;;;;;;;13.67;13.67;;;;;;;;4902397;28;45315;-64
2024/03/04 08:00:29;;;;;;;;;20.50;17.75;;;;;;;;4910329;28;45552;-64
2024/03/04 08:02:55;;;;;;;;;20.00;17.67;;;;;;;;4923640;28;46184;-64
2024/03/04 08:05:20;;;;;;;;;23.00;20.25;;;;;;;;4919883;28;46012;-64
2024/03/04 08:07:45;;;;;;;;;22.67;21.67;;;;;;;;4905072;28;45418;-64
2024/03/04 08:10:13;;;;;;;;;26.33;22.33;;;;;;;;4932743;28;45542;-64
2024/03/04 08:12:38;;;;;;;;;21.75;17.25;;;;;;;;4934041;28;46403;-64
2024/03/04 08:15:04;;;;;;;;;22.00;21.67;;;;;;;;4903797;28;45339;-64
2024/03/04 08:17:29;;;;;;;;;27.75;21.75;;;;;;;;4894757;28;45468;-64
2024/03/04 08:19:56;;;;;;;;;24.50;21.50;;;;;;;;4904539;28;45426;-64
2024/03/04 08:22:22;;;;;;;;;23.25;22.00;;;;;;;;4921917;28;45718;-64
2024/03/04 08:24:48;;;;;;;;;30.50;28.75;;;;;;;;4904246;28;45561;-64
2024/03/04 08:27:14;;;;;;;;;28.00;24.50;;;;;;;;4906656;28;45518;-63
2024/03/04 08:29:39;;;;;;;;;22.75;18.25;;;;;;;;4901882;28;46015;-66
2024/03/04 08:32:05;;;;;;;;;21.50;19.25;;;;;;;;4902256;28;47074;-64
2024/03/04 08:34:33;;;;;;;;;24.00;22.50;;;;;;;;4922505;28;45692;-65
2024/03/04 08:36:58;;;;;;;;;26.00;24.25;;;;;;;;4917213;28;45363;-65
2024/03/04 08:39:24;;;;;;;;;19.75;18.00;;;;;;;;4920326;28;45758;-67
2024/03/04 08:41:49;;;;;;;;;23.00;23.00;;;;;;;;4918036;28;46032;-65
2024/03/04 08:44:15;;;;;;;;;21.00;19.67;;;;;;;;4918634;28;45484;-67
2024/03/04 08:46:40;;;;;;;;;20.00;19.25;;;;;;;;4919454;28;45401;-66
2024/03/04 08:49:05;;;;;;;;;19.25;19.25;;;;;;;;4919572;28;45396;-66
2024/03/04 08:51:31;;;;;;;;;26.33;21.67;;;;;;;;4921871;28;45522;-67
2024/03/04 08:53:56;;;;;;;;;28.00;23.75;;;;;;;;4919611;28;45276;-66
2024/03/04 08:56:22;;;;;;;;;19.67;19.67;;;;;;;;4920535;28;45988;-67
2024/03/04 08:58:47;;;;;;;;;19.00;17.00;;;;;;;;4922374;28;45589;-66
2024/03/04 09:01:12;;;;;;;;;11.25;11.25;;;;;;;;4922252;28;45570;-66
2024/03/04 09:03:40;;;;;;;;;18.67;13.67;;;;;;;;4920034;28;45743;-66
2024/03/04 09:06:13;;;;;;;;;15.25;12.00;;;;;;;;4920565;28;45581;-66
2024/03/04 09:08:38;;;;;;;;;13.50;12.50;;;;;;;;4908006;28;45562;-66
2024/03/04 09:11:04;;;;;;;;;18.00;15.33;;;;;;;;4922905;28;45630;-66
2024/03/04 09:13:29;;;;;;;;;19.00;15.33;;;;;;;;4922539;28;45756;-66
2024/03/04 09:15:54;;;;;;;;;21.33;17.67;;;;;;;;4920464;28;45423;-66
2024/03/04 09:18:19;;;;;;;;;13.67;13.67;;;;;;;;4924748;28;45454;-65
2024/03/04 09:20:44;;;;;;;;;12.00;12.00;;;;;;;;4926075;28;45716;-67
2024/03/04 09:23:12;;;;;;;;;8.67;8.67;;;;;;;;4918250;28;45471;-67
2024/03/04 09:25:37;;;;;;;;;10.00;9.00;;;;;;;;4933761;28;45430;-66
2024/03/04 09:28:02;;;;;;;;;9.00;9.00;;;;;;;;4911796;28;45416;-66
2024/03/04 09:30:28;;;;;;;;;13.50;8.00;;;;;;;;4899857;28;47344;-67
2024/03/04 09:32:53;;;;;;;;;11.33;9.33;;;;;;;;4919003;28;45404;-67
2024/03/04 09:35:18;;;;;;;;;4.67;4.67;;;;;;;;4926174;28;45637;-67
2024/03/04 09:37:44;;;;;;;;;5.33;5.33;;;;;;;;4921480;28;45794;-67
2024/03/04 09:40:10;;;;;;;;;4.00;4.00;;;;;;;;4925646;28;45650;-67
2024/03/04 09:42:37;;;;;;;;;4.25;3.25;;;;;;;;4919037;28;45464;-67
2024/03/04 09:45:03;;;;;;;;;4.75;4.50;;;;;;;;4919778;28;45375;-67
2024/03/04 09:47:28;;;;;;;;;4.75;4.75;;;;;;;;4918882;28;45348;-67
2024/03/04 09:49:54;;;;;;;;;12.00;7.00;;;;;;;;4917543;28;46703;-67
2024/03/04 09:52:19;;;;;;;;;8.00;7.25;;;;;;;;4923441;28;45677;-67
2024/03/04 09:54:46;;;;;;;;;9.25;9.00;;;;;;;;4923101;28;45536;-67
2024/03/04 09:57:11;;;;;;;;;6.25;6.00;;;;;;;;4924231;28;45477;-67
2024/03/04 09:59:36;;;;;;;;;5.75;5.25;;;;;;;;4927426;28;45728;-67
2024/03/04 10:02:05;;;;;;;;;8.67;7.00;;;;;;;;4925837;28;45526;-67
2024/03/04 10:04:30;;;;;;;;;5.50;5.50;;;;;;;;4925345;28;45506;-67
2024/03/04 10:06:55;;;;;;;;;7.00;5.50;;;;;;;;4923680;28;45686;-67
2024/03/04 10:09:22;;;;;;;;;6.33;6.33;;;;;;;;4922578;28;45342;-67
2024/03/04 10:11:47;;;;;;;;;3.50;3.00;;;;;;;;4921886;28;45751;-67
2024/03/04 10:14:13;;;;;;;;;3.75;2.00;;;;;;;;4904332;28;45809;-67
2024/03/04 10:16:38;;;;;;;;;2.00;2.00;;;;;;;;4935288;28;45536;-71
2024/03/04 10:19:04;;;;;;;;;2.33;2.33;;;;;;;;4927296;28;46177;-66
2024/03/04 10:21:32;;;;;;;;;6.00;2.50;;;;;;;;4915213;28;45888;-67
2024/03/04 10:24:07;;;;;;;;;3.25;1.25;;;;;;;;4928715;28;45395;-66
2024/03/04 10:26:42;;;;;;;;;2.00;2.00;;;;;;;;4919615;28;45621;-65
2024/03/04 10:29:08;;;;;;;;;3.00;3.00;;;;;;;;4917954;28;46935;-66
2024/03/04 10:31:36;;;;;;;;;5.00;4.00;;;;;;;;4919395;28;45486;-65
2024/03/04 10:34:02;;;;;;;;;3.00;3.00;;;;;;;;4911175;28;45787;-66
2024/03/04 10:36:28;;;;;;;;;7.25;3.75;;;;;;;;4928170;28;45704;-66
2024/03/04 10:38:55;;;;;;;;;5.00;3.75;;;;;;;;4921760;28;46956;-66
2024/03/04 10:41:23;;;;;;;;;3.00;2.50;;;;;;;;4935166;28;45592;-66
2024/03/04 10:43:50;;;;;;;;;2.00;2.00;;;;;;;;4903030;28;45507;-66
2024/03/04 10:46:16;;;;;;;;;4.00;3.00;;;;;;;;4926562;28;45477;-66
2024/03/04 10:48:41;;;;;;;;;2.00;2.00;;;;;;;;4921895;28;45505;-66
2024/03/04 10:51:07;;;;;;;;;2.00;2.00;;;;;;;;4923462;28;45665;-65
2024/03/04 10:53:32;;;;;;;;;3.00;2.00;;;;;;;;4916659;28;46335;-66
2024/03/04 10:56:03;;;;;;;;;0.75;0.00;;;;;;;;4918188;28;46047;-66
2024/03/04 10:58:29;;;;;;;;;1.75;1.00;;;;;;;;4924953;28;45513;-66
2024/03/04 11:00:55;;;;;;;;;0.75;0.75;;;;;;;;4925085;28;45538;-67
2024/03/04 11:03:23;;;;;;;;;2.75;1.00;;;;;;;;4925004;28;45301;-68
2024/03/04 11:05:50;;;;;;;;;2.00;1.00;;;;;;;;4921331;28;45576;-67
2024/03/04 11:08:29;;;;;;;;;2.50;1.50;;;;;;;;4921850;28;46197;-67
2024/03/04 11:11:00;;;;;;;;;0.00;0.00;;;;;;;;4921555;28;45442;-66
2024/03/04 11:13:32;;;;;;;;;3.25;1.50;;;;;;;;4915901;28;45670;-66
2024/03/04 11:16:07;;;;;;;;;1.00;1.00;;;;;;;;4924612;28;45383;-66
2024/03/04 11:18:39;;;;;;;;;3.00;2.00;;;;;;;;4919763;28;46477;-66
2024/03/04 11:21:05;;;;;;;;;0.00;0.00;;;;;;;;4921981;28;45689;-66
2024/03/04 11:23:31;;;;;;;;;0.00;0.00;;;;;;;;4922120;28;45255;-66
2024/03/04 11:25:57;;;;;;;;;0.25;0.25;;;;;;;;4920928;28;45583;-66
2024/03/04 11:28:23;;;;;;;;;0.00;0.00;;;;;;;;4904168;28;46159;-65
2024/03/04 11:30:50;;;;;;;;;1.25;0.50;;;;;;;;4921543;28;45780;-66
2024/03/04 11:33:34;;;;;;;;;1.75;0.00;;;;;;;;4922260;28;45549;-66
2024/03/04 11:35:59;;;;;;;;;0.75;0.00;;;;;;;;4921057;28;45349;-66
2024/03/04 11:38:27;;;;;;;;;1.00;1.00;;;;;;;;4922312;28;46271;-66
2024/03/04 11:40:56;;;;;;;;;1.00;1.00;;;;;;;;4921691;28;45567;-66
2024/03/04 11:43:40;;;;;;;;;3.00;1.25;;;;;;;;4923055;28;45443;-66
2024/03/04 11:46:09;;;;;;;;;1.00;0.00;;;;;;;;4928890;28;45453;-66
2024/03/04 11:48:34;;;;;;;;;1.25;1.25;;;;;;;;4925006;28;45470;-66
2024/03/04 11:51:00;;;;;;;;;0.00;0.00;;;;;;;;4923417;28;45416;-66
2024/03/04 11:53:31;;;;;;;;;2.00;0.00;;;;;;;;4927433;28;45446;-66
2024/03/04 11:55:56;;;;;;;;;1.00;1.00;;;;;;;;4939533;28;45295;-66
2024/03/04 11:58:22;;;;;;;;;1.00;1.00;;;;;;;;4927873;28;45360;-66
2024/03/04 12:00:48;;;;;;;;;3.00;2.00;;;;;;;;4934221;28;45443;-66
2024/03/04 12:03:14;;;;;;;;;0.75;0.75;;;;;;;;4918447;28;45676;-66
2024/03/04 12:05:40;;;;;;;;;1.75;1.75;;;;;;;;4934405;28;45417;-66
2024/03/04 12:08:06;;;;;;;;;1.75;1.00;;;;;;;;4929873;28;46640;-66
2024/03/04 12:10:32;;;;;;;;;1.75;1.00;;;;;;;;4933933;28;45416;-66
2024/03/04 12:12:58;;;;;;;;;0.00;0.00;;;;;;;;4924651;28;45568;-66
2024/03/04 12:15:23;;;;;;;;;2.00;1.00;;;;;;;;4933019;28;45656;-66
2024/03/04 12:17:48;;;;;;;;;1.00;1.00;;;;;;;;4924018;28;45514;-66
2024/03/04 12:20:13;;;;;;;;;1.33;1.00;;;;;;;;4933132;28;45476;-66
2024/03/04 12:22:39;;;;;;;;;0.25;0.25;;;;;;;;4926930;28;45322;-66
2024/03/04 12:25:05;;;;;;;;;1.00;1.00;;;;;;;;4925541;28;45733;-66
2024/03/04 12:27:31;;;;;;;;;2.00;0.25;;;;;;;;4917036;28;46218;-66
2024/03/04 12:30:07;;;;;;;;;1.25;0.75;;;;;;;;4925889;28;45305;-66
2024/03/04 12:32:33;;;;;;;;;0.00;0.00;;;;;;;;4925603;28;45510;-66
2024/03/04 12:34:59;;;;;;;;;0.75;0.75;;;;;;;;4928547;28;45476;-66
2024/03/04 12:37:24;;;;;;;;;2.00;2.00;;;;;;;;4919152;28;46027;-66
2024/03/04 12:39:49;;;;;;;;;2.00;2.00;;;;;;;;4920649;28;45401;-66
2024/03/04 12:42:16;;;;;;;;;1.00;1.00;;;;;;;;4927602;28;45907;-66
2024/03/04 12:44:41;;;;;;;;;2.00;0.50;;;;;;;;4912258;28;45545;-66
2024/03/04 12:47:07;;;;;;;;;1.00;1.00;;;;;;;;4920111;28;45657;-69
2024/03/04 12:49:33;;;;;;;;;0.25;0.25;;;;;;;;4911761;28;45706;-68
2024/03/04 12:52:01;;;;;;;;;2.00;0.50;;;;;;;;4911571;28;45531;-68
2024/03/04 12:54:26;;;;;;;;;0.75;0.75;;;;;;;;4916643;28;45497;-68
2024/03/04 12:56:52;;;;;;;;;1.00;1.00;;;;;;;;4901121;28;48324;-67
2024/03/04 12:59:18;;;;;;;;;0.50;0.50;;;;;;;;4923832;28;45939;-66
2024/03/04 13:01:43;;;;;;;;;0.00;0.00;;;;;;;;4921815;28;45820;-66
2024/03/04 13:04:08;;;;;;;;;0.00;0.00;;;;;;;;4916110;28;45442;-66
2024/03/04 13:06:33;;;;;;;;;0.00;0.00;;;;;;;;4894880;28;48336;-66
2024/03/04 13:08:58;;;;;;;;;0.00;0.00;;;;;;;;4913741;28;45669;-67
2024/03/04 13:11:24;;;;;;;;;0.00;0.00;;;;;;;;4915962;28;45605;-67
2024/03/04 13:13:49;;;;;;;;;0.00;0.00;;;;;;;;4919516;28;45730;-67
2024/03/04 13:16:14;;;;;;;;;0.00;0.00;;;;;;;;4916686;28;45529;-66
2024/03/04 13:18:39;;;;;;;;;0.00;0.00;;;;;;;;4919109;28;45443;-66
2024/03/04 13:21:06;;;;;;;;;2.00;0.00;;;;;;;;4916846;28;45881;-66
2024/03/04 13:23:31;;;;;;;;;4.00;0.00;;;;;;;;4913986;28;45557;-66
2024/03/04 13:25:56;;;;;;;;;0.00;0.00;;;;;;;;4920293;28;45641;-68
2024/03/04 13:28:21;;;;;;;;;0.00;0.00;;;;;;;;4918484;28;45418;-66
2024/03/04 13:30:47;;;;;;;;;0.33;0.33;;;;;;;;4914618;28;45394;-68
2024/03/04 13:33:12;;;;;;;;;0.00;0.00;;;;;;;;4918740;28;46463;-67
2024/03/04 13:35:37;;;;;;;;;0.00;0.00;;;;;;;;4918020;28;46265;-68
2024/03/04 13:38:02;;;;;;;;;0.00;0.00;;;;;;;;4928752;28;45653;-68
2024/03/04 13:40:28;;;;;;;;;0.00;0.00;;;;;;;;4919052;28;45569;-67
2024/03/04 13:42:53;;;;;;;;;0.00;0.00;;;;;;;;4920910;28;45613;-68
2024/03/04 13:45:18;;;;;;;;;0.67;0.00;;;;;;;;4919621;28;47100;-67
2024/03/04 13:47:44;;;;;;;;;0.00;0.00;;;;;;;;4934943;28;45498;-68
2024/03/04 13:50:10;;;;;;;;;1.25;0.00;;;;;;;;4900764;28;45591;-67
2024/03/04 13:52:35;;;;;;;;;0.00;0.00;;;;;;;;4922876;28;45537;-67
2024/03/04 13:55:01;;;;;;;;;0.50;0.50;;;;;;;;4924356;28;46950;-67
2024/03/04 13:57:26;;;;;;;;;2.00;0.00;;;;;;;;4923229;28;45400;-67
2024/03/04 13:59:51;;;;;;;;;0.00;0.00;;;;;;;;4921290;28;45405;-67
2024/03/04 14:02:17;;;;;;;;;0.00;0.00;;;;;;;;4916558;28;45295;-67
2024/03/04 14:04:42;;;;;;;;;0.00;0.00;;;;;;;;4926203;28;45951;-67
2024/03/04 14:07:07;;;;;;;;;1.00;1.00;;;;;;;;4932569;28;45555;-67
2024/03/04 14:09:32;;;;;;;;;0.00;0.00;;;;;;;;4918182;28;45528;-67
2024/03/04 14:11:58;;;;;;;;;0.00;0.00;;;;;;;;4921310;28;45602;-67
2024/03/04 14:14:24;;;;;;;;;1.00;0.00;;;;;;;;4928952;28;45473;-68
2024/03/04 14:16:49;;;;;;;;;2.00;0.00;;;;;;;;4924160;28;45930;-68